createdAt,value
2018-08-13T00:01:02.798Z,20.90
2018-08-13T00:03:31.346Z,20.80
2018-08-13T00:05:59.687Z,20.80
2018-08-13T00:08:28.138Z,20.80
2018-08-13T00:10:56.534Z,20.70
2018-08-13T00:13:25.100Z,20.80
2018-08-13T00:15:53.483Z,20.80
2018-08-13T00:18:21.864Z,20.70
2018-08-13T00:20:50.350Z,20.70
2018-08-13T00:23:18.904Z,20.70
2018-08-13T00:25:47.373Z,20.80
2018-08-13T00:28:15.791Z,20.80
2018-08-13T00:30:44.309Z,20.60
2018-08-13T00:33:12.752Z,20.40
2018-08-13T00:35:41.133Z,20.20
2018-08-13T00:38:09.619Z,20.20
2018-08-13T00:40:37.967Z,20.30
2018-08-13T00:43:06.917Z,20.40
2018-08-13T00:45:35.363Z,20.30
2018-08-13T00:48:03.957Z,20.20
2018-08-13T00:50:32.331Z,20.20
2018-08-13T00:53:00.774Z,20.10
2018-08-13T00:55:29.791Z,20.10
2018-08-13T00:57:58.187Z,20.00
2018-08-13T01:00:26.764Z,20.00
2018-08-13T01:02:55.253Z,20.00
2018-08-13T01:05:23.690Z,20.00
2018-08-13T01:07:52.042Z,20.10
2018-08-13T01:10:21.887Z,19.90
2018-08-13T01:12:50.333Z,19.80
2018-08-13T01:15:19.679Z,19.70
2018-08-13T01:17:49.184Z,19.80
2018-08-13T01:20:19.314Z,19.90
2018-08-13T01:22:47.733Z,20.00
2018-08-13T01:25:18.328Z,20.00
2018-08-13T01:27:46.810Z,20.10
2018-08-13T01:30:17.206Z,20.10
2018-08-13T01:32:45.693Z,20.00
2018-08-13T01:35:14.186Z,20.00
2018-08-13T01:37:42.808Z,20.00
2018-08-13T01:40:12.000Z,20.00
2018-08-13T01:42:40.481Z,20.00
2018-08-13T01:45:10.964Z,19.90
2018-08-13T01:47:39.910Z,19.90
2018-08-13T01:50:12.110Z,19.90
2018-08-13T01:52:41.464Z,20.00
2018-08-13T01:55:10.682Z,20.00
2018-08-13T01:57:39.128Z,20.00
2018-08-13T02:00:14.474Z,19.80
2018-08-13T02:02:42.960Z,19.80
2018-08-13T02:05:11.311Z,19.90
2018-08-13T02:07:39.764Z,19.80
2018-08-13T02:10:10.559Z,19.80
2018-08-13T02:12:39.418Z,19.80
2018-08-13T02:15:07.881Z,19.80
2018-08-13T02:17:36.349Z,19.80
2018-08-13T02:20:07.342Z,19.80
2018-08-13T02:22:35.992Z,19.90
2018-08-13T02:25:05.780Z,19.90
2018-08-13T02:27:34.202Z,19.80
2018-08-13T02:30:02.905Z,19.80
2018-08-13T02:32:31.215Z,19.80
2018-08-13T02:34:59.561Z,19.80
2018-08-13T02:37:27.931Z,19.90
2018-08-13T02:39:56.257Z,19.80
2018-08-13T02:42:24.618Z,19.70
2018-08-13T02:44:52.985Z,19.70
2018-08-13T02:47:21.344Z,19.70
2018-08-13T02:49:49.689Z,19.70
2018-08-13T02:52:18.062Z,19.50
2018-08-13T02:54:46.378Z,19.40
2018-08-13T02:57:14.676Z,19.30
2018-08-13T02:59:42.964Z,19.30
2018-08-13T03:02:14.312Z,19.40
2018-08-13T03:04:42.739Z,19.50
2018-08-13T03:07:11.184Z,19.60
2018-08-13T03:09:39.549Z,19.60
2018-08-13T03:12:07.902Z,19.60
2018-08-13T03:14:36.243Z,19.50
2018-08-13T03:17:04.689Z,19.60
2018-08-13T03:19:33.023Z,19.50
2018-08-13T03:22:01.394Z,19.60
2018-08-13T03:24:29.822Z,19.50
2018-08-13T03:26:58.204Z,19.50
2018-08-13T03:29:26.549Z,19.50
2018-08-13T03:31:54.881Z,19.60
2018-08-13T03:34:23.279Z,19.60
2018-08-13T03:36:51.709Z,19.60
2018-08-13T03:39:20.077Z,19.60
2018-08-13T03:41:48.419Z,19.70
2018-08-13T03:44:16.790Z,19.70
2018-08-13T03:46:45.188Z,19.80
2018-08-13T03:49:13.473Z,19.70
2018-08-13T03:51:41.966Z,19.70
2018-08-13T03:54:10.404Z,19.70
2018-08-13T03:56:38.795Z,19.60
2018-08-13T03:59:07.167Z,19.50
2018-08-13T04:01:35.717Z,19.50
2018-08-13T04:04:04.130Z,19.40
2018-08-13T04:06:32.621Z,19.40
2018-08-13T04:09:00.924Z,19.50
2018-08-13T04:11:29.244Z,19.50
2018-08-13T04:13:57.612Z,19.40
2018-08-13T04:16:25.995Z,19.40
2018-08-13T04:18:54.889Z,19.40
2018-08-13T04:21:23.197Z,19.40
2018-08-13T04:23:51.572Z,19.40
2018-08-13T04:26:20.001Z,19.50
2018-08-13T04:28:48.489Z,19.50
2018-08-13T04:31:16.864Z,19.40
2018-08-13T04:33:45.289Z,19.40
2018-08-13T04:36:13.668Z,19.50
2018-08-13T04:38:42.052Z,19.50
2018-08-13T04:41:10.443Z,19.60
2018-08-13T04:43:38.948Z,19.60
2018-08-13T04:46:07.738Z,19.60
2018-08-13T04:48:36.179Z,19.60
2018-08-13T04:51:04.590Z,19.60
2018-08-13T04:53:32.998Z,19.60
2018-08-13T04:56:01.373Z,19.70
2018-08-13T04:58:29.712Z,19.80
2018-08-13T05:00:58.121Z,19.90
2018-08-13T05:03:26.461Z,19.90
2018-08-13T05:05:54.972Z,20.00
2018-08-13T05:08:23.405Z,20.00
2018-08-13T05:10:51.743Z,20.20
2018-08-13T05:13:20.172Z,20.10
2018-08-13T05:15:48.572Z,20.20
2018-08-13T05:18:16.926Z,20.20
2018-08-13T05:20:45.255Z,20.20
2018-08-13T05:23:13.658Z,20.30
2018-08-13T05:25:42.216Z,20.40
2018-08-13T05:28:10.681Z,20.30
2018-08-13T05:30:39.136Z,20.30
2018-08-13T05:33:07.567Z,20.40
2018-08-13T05:35:36.042Z,20.40
2018-08-13T05:38:04.541Z,20.50
2018-08-13T05:40:32.934Z,20.60
2018-08-13T05:43:01.357Z,20.70
2018-08-13T05:45:29.790Z,20.80
2018-08-13T05:47:58.196Z,20.90
2018-08-13T05:50:26.629Z,21.00
2018-08-13T05:52:55.122Z,21.10
2018-08-13T05:55:23.611Z,21.20
2018-08-13T05:57:52.097Z,21.20
2018-08-13T06:00:20.475Z,21.30
2018-08-13T06:02:48.902Z,21.30
2018-08-13T06:05:17.339Z,21.30
2018-08-13T06:07:45.678Z,21.40
2018-08-13T06:10:14.047Z,21.40
2018-08-13T06:12:42.561Z,21.50
2018-08-13T06:15:12.471Z,21.50
2018-08-13T06:17:40.972Z,21.50
2018-08-13T06:20:11.171Z,21.60
2018-08-13T06:22:40.870Z,21.60
2018-08-13T06:25:10.247Z,21.70
2018-08-13T06:27:38.672Z,21.70
2018-08-13T06:30:13.558Z,21.70
2018-08-13T06:32:42.456Z,21.90
2018-08-13T06:35:11.793Z,21.90
2018-08-13T06:37:41.289Z,22.00
2018-08-13T06:40:09.800Z,22.10
2018-08-13T06:42:38.729Z,22.10
2018-08-13T06:45:08.536Z,22.30
2018-08-13T06:47:37.674Z,22.40
2018-08-13T06:50:08.908Z,22.50
2018-08-13T06:52:37.412Z,22.60
2018-08-13T06:55:12.557Z,22.90
2018-08-13T06:57:41.357Z,23.00
2018-08-13T07:00:12.924Z,23.20
2018-08-13T07:02:41.615Z,23.40
2018-08-13T07:05:10.982Z,23.50
2018-08-13T07:07:40.174Z,23.60
2018-08-13T07:10:10.688Z,23.70
2018-08-13T07:12:40.856Z,23.80
2018-08-13T07:15:09.647Z,23.80
2018-08-13T07:17:38.109Z,23.90
2018-08-13T07:20:11.738Z,23.90
2018-08-13T07:22:40.201Z,23.90
2018-08-13T07:25:09.314Z,24.00
2018-08-13T07:27:38.888Z,24.00
2018-08-13T07:30:10.847Z,24.10
2018-08-13T07:32:39.345Z,24.20
2018-08-13T07:35:08.165Z,24.30
2018-08-13T07:37:36.600Z,24.40
2018-08-13T07:40:08.906Z,24.40
2018-08-13T07:42:37.385Z,24.30
2018-08-13T07:45:06.892Z,24.30
2018-08-13T07:47:35.332Z,24.20
2018-08-13T07:50:04.757Z,24.20
2018-08-13T07:52:33.186Z,24.00
2018-08-13T07:55:02.039Z,23.90
2018-08-13T07:57:30.405Z,23.80
2018-08-13T07:59:58.916Z,23.80
2018-08-13T08:02:27.514Z,23.80
2018-08-13T08:04:55.937Z,23.80
2018-08-13T08:07:24.359Z,23.90
2018-08-13T08:09:52.785Z,23.80
2018-08-13T08:12:21.799Z,23.80
2018-08-13T08:14:50.313Z,23.90
2018-08-13T08:17:18.721Z,23.90
2018-08-13T08:19:47.198Z,23.80
2018-08-13T08:22:16.494Z,23.70
2018-08-13T08:24:44.974Z,23.70
2018-08-13T08:27:13.433Z,23.50
2018-08-13T08:29:41.812Z,23.40
2018-08-13T08:32:10.353Z,23.30
2018-08-13T08:34:38.866Z,23.20
2018-08-13T08:37:07.461Z,23.20
2018-08-13T08:39:36.014Z,23.30
2018-08-13T08:42:04.533Z,23.20
2018-08-13T08:44:32.960Z,23.10
2018-08-13T08:47:01.425Z,23.00
2018-08-13T08:49:30.057Z,22.90
2018-08-13T08:51:58.627Z,23.00
2018-08-13T08:54:27.031Z,23.00
2018-08-13T08:56:55.557Z,23.00
2018-08-13T08:59:24.222Z,23.10
2018-08-13T09:01:52.581Z,23.30
2018-08-13T09:04:21.138Z,22.90
2018-08-13T09:06:49.556Z,22.60
2018-08-13T09:09:17.997Z,22.40
2018-08-13T09:11:46.550Z,22.40
2018-08-13T09:14:15.244Z,22.30
2018-08-13T09:16:47.315Z,22.20
2018-08-13T09:19:32.519Z,22.30
2018-08-13T09:22:19.346Z,22.30
2018-08-13T09:25:04.677Z,22.40
2018-08-13T09:27:49.825Z,22.40
2018-08-13T09:30:34.994Z,22.20
2018-08-13T09:33:20.082Z,22.40
2018-08-13T09:35:48.539Z,22.00
2018-08-13T09:38:17.101Z,22.00
2018-08-13T09:40:45.515Z,22.00
2018-08-13T09:43:13.930Z,22.20
2018-08-13T09:45:42.362Z,22.40
2018-08-13T09:48:10.845Z,22.40
2018-08-13T09:50:39.201Z,22.40
2018-08-13T09:53:07.681Z,22.50
2018-08-13T09:55:36.990Z,22.60
2018-08-13T09:58:06.660Z,22.70
2018-08-13T10:00:40.772Z,22.70
2018-08-13T10:03:09.125Z,22.80
2018-08-13T10:05:37.485Z,22.80
2018-08-13T10:08:06.337Z,22.80
2018-08-13T10:10:34.783Z,23.00
2018-08-13T10:13:04.153Z,23.00
2018-08-13T10:15:33.165Z,23.10
2018-08-13T10:18:01.793Z,23.10
2018-08-13T10:20:30.322Z,23.00
2018-08-13T10:22:58.700Z,22.70
2018-08-13T10:25:27.998Z,22.70
2018-08-13T10:27:57.514Z,22.80
2018-08-13T10:30:26.020Z,22.90
2018-08-13T10:32:54.548Z,23.00
2018-08-13T10:35:22.934Z,23.10
2018-08-13T10:37:51.341Z,23.20
2018-08-13T10:40:19.858Z,23.20
2018-08-13T10:42:48.330Z,23.10
2018-08-13T10:45:17.011Z,23.10
2018-08-13T10:47:45.453Z,23.10
2018-08-13T10:50:14.885Z,23.10
2018-08-13T10:52:43.486Z,23.10
2018-08-13T10:55:14.837Z,23.00
2018-08-13T10:57:44.340Z,22.90
2018-08-13T11:00:15.136Z,22.90
2018-08-13T11:02:43.608Z,22.80
2018-08-13T11:05:13.062Z,22.70
2018-08-13T11:07:41.659Z,22.70
2018-08-13T11:10:14.695Z,22.70
2018-08-13T11:12:43.101Z,22.70
2018-08-13T11:15:15.156Z,22.70
2018-08-13T11:17:43.984Z,22.80
2018-08-13T11:20:12.572Z,22.90
2018-08-13T11:22:41.869Z,22.90
2018-08-13T11:25:12.630Z,22.90
2018-08-13T11:27:41.190Z,22.90
2018-08-13T11:30:12.377Z,22.90
2018-08-13T11:32:40.954Z,23.00
2018-08-13T11:35:09.492Z,22.90
2018-08-13T11:37:38.025Z,22.90
2018-08-13T11:40:14.190Z,22.90
2018-08-13T11:42:42.885Z,22.90
2018-08-13T11:45:11.336Z,22.90
2018-08-13T11:47:40.185Z,22.90
2018-08-13T11:50:11.666Z,23.00
2018-08-13T11:52:40.330Z,23.00
2018-08-13T11:55:08.748Z,23.10
2018-08-13T11:57:37.210Z,23.10
2018-08-13T12:00:08.962Z,23.20
2018-08-13T12:02:38.104Z,23.00
2018-08-13T12:05:09.276Z,23.00
2018-08-13T12:07:37.799Z,23.00
2018-08-13T12:10:07.909Z,23.00
2018-08-13T12:12:36.516Z,23.00
2018-08-13T12:15:06.481Z,23.10
2018-08-13T12:17:34.901Z,23.10
2018-08-13T12:20:04.629Z,22.90
2018-08-13T12:22:33.042Z,22.70
2018-08-13T12:25:01.489Z,22.70
2018-08-13T12:27:29.967Z,22.70
2018-08-13T12:29:59.089Z,22.70
2018-08-13T12:32:27.469Z,22.70
2018-08-13T12:34:55.971Z,22.70
2018-08-13T12:37:24.394Z,22.60
2018-08-13T12:39:52.797Z,22.70
2018-08-13T12:42:21.199Z,22.70
2018-08-13T12:44:49.649Z,22.60
2018-08-13T12:47:18.004Z,22.60
2018-08-13T12:49:46.354Z,22.50
2018-08-13T12:52:15.671Z,22.50
2018-08-13T12:54:44.061Z,22.50
2018-08-13T12:57:12.535Z,22.40
2018-08-13T12:59:40.925Z,22.30
2018-08-13T13:02:09.418Z,22.20
2018-08-13T13:04:37.939Z,22.10
2018-08-13T13:07:06.357Z,22.20
2018-08-13T13:09:34.870Z,22.40
2018-08-13T13:12:03.346Z,22.30
2018-08-13T13:14:31.703Z,22.50
2018-08-13T13:17:00.101Z,22.60
2018-08-13T13:19:28.528Z,22.70
2018-08-13T13:21:56.974Z,22.80
2018-08-13T13:24:25.662Z,22.90
2018-08-13T13:26:54.087Z,23.10
2018-08-13T13:29:22.481Z,23.30
2018-08-13T13:31:50.851Z,23.50
2018-08-13T13:34:19.367Z,23.80
2018-08-13T13:36:47.804Z,23.90
2018-08-13T13:39:16.266Z,24.00
2018-08-13T13:41:44.783Z,24.20
2018-08-13T13:44:13.269Z,24.20
2018-08-13T13:46:41.765Z,24.30
2018-08-13T13:49:10.213Z,24.30
2018-08-13T13:51:38.877Z,24.40
2018-08-13T13:54:07.441Z,24.50
2018-08-13T13:56:35.858Z,24.60
2018-08-13T13:59:04.450Z,24.70
2018-08-13T14:01:32.907Z,24.40
2018-08-13T14:04:01.325Z,24.60
2018-08-13T14:06:29.682Z,24.80
2018-08-13T14:08:58.109Z,25.10
2018-08-13T14:11:26.494Z,25.30
2018-08-13T14:13:54.836Z,25.30
2018-08-13T14:16:23.390Z,25.40
2018-08-13T14:18:51.875Z,25.30
2018-08-13T14:21:20.381Z,25.40
2018-08-13T14:23:48.978Z,25.40
2018-08-13T14:26:17.356Z,25.30
2018-08-13T14:28:45.697Z,25.00
2018-08-13T14:31:14.142Z,25.10
2018-08-13T14:33:42.642Z,25.20
2018-08-13T14:36:11.131Z,25.20
2018-08-13T14:38:39.694Z,25.20
2018-08-13T14:41:08.070Z,25.10
2018-08-13T14:43:36.465Z,25.00
2018-08-13T14:46:04.995Z,24.60
2018-08-13T14:48:33.468Z,24.50
2018-08-13T14:51:01.821Z,24.20
2018-08-13T14:53:30.356Z,22.60
2018-08-13T14:55:59.051Z,21.50
2018-08-13T14:58:27.439Z,20.80
2018-08-13T15:00:56.264Z,20.60
2018-08-13T15:03:25.483Z,20.60
2018-08-13T15:05:54.055Z,20.70
2018-08-13T15:08:22.423Z,20.70
2018-08-13T15:10:50.821Z,20.90
2018-08-13T15:13:19.421Z,21.10
2018-08-13T15:15:47.690Z,21.40
2018-08-13T15:18:16.045Z,21.50
2018-08-13T15:20:44.518Z,21.70
2018-08-13T15:23:12.952Z,21.60
2018-08-13T15:25:41.424Z,21.50
2018-08-13T15:28:10.010Z,21.30
2018-08-13T15:30:38.431Z,21.30
2018-08-13T15:33:06.943Z,21.20
2018-08-13T15:35:35.343Z,21.30
2018-08-13T15:38:03.796Z,21.50
2018-08-13T15:40:32.286Z,21.70
2018-08-13T15:43:00.760Z,21.80
2018-08-13T15:45:29.289Z,21.90
2018-08-13T15:47:57.701Z,21.90
2018-08-13T15:50:26.192Z,22.00
2018-08-13T15:52:54.611Z,22.00
2018-08-13T15:55:23.609Z,21.90
2018-08-13T15:57:52.081Z,21.90
2018-08-13T16:00:23.493Z,21.90
2018-08-13T16:02:52.160Z,21.80
2018-08-13T16:05:21.091Z,21.70
2018-08-13T16:07:49.864Z,21.80
2018-08-13T16:10:18.634Z,21.80
2018-08-13T16:12:47.257Z,21.70
2018-08-13T16:15:15.805Z,21.70
2018-08-13T16:17:44.273Z,21.70
2018-08-13T16:20:16.081Z,21.60
2018-08-13T16:22:45.340Z,21.60
2018-08-13T16:25:14.197Z,21.60
2018-08-13T16:27:43.318Z,21.60
2018-08-13T16:30:25.986Z,21.40
2018-08-13T16:32:54.460Z,21.30
2018-08-13T16:35:23.866Z,21.20
2018-08-13T16:37:52.323Z,21.20
2018-08-13T16:40:21.968Z,21.10
2018-08-13T16:42:51.212Z,21.10
2018-08-13T16:45:21.062Z,21.00
2018-08-13T16:47:49.718Z,20.90
2018-08-13T16:50:31.774Z,20.90
2018-08-13T16:53:01.462Z,20.90
2018-08-13T16:55:31.231Z,21.00
2018-08-13T16:58:00.917Z,21.00
2018-08-13T17:00:30.424Z,21.10
2018-08-13T17:02:59.570Z,21.10
2018-08-13T17:05:29.735Z,21.10
2018-08-13T17:07:58.152Z,21.10
2018-08-13T17:10:27.867Z,21.00
2018-08-13T17:12:57.139Z,21.10
2018-08-13T17:15:27.699Z,21.10
2018-08-13T17:17:58.275Z,21.20
2018-08-13T17:20:30.936Z,21.10
2018-08-13T17:22:59.428Z,21.20
2018-08-13T17:25:28.044Z,21.20
2018-08-13T17:27:56.581Z,21.10
2018-08-13T17:30:25.855Z,21.20
2018-08-13T17:32:56.349Z,21.10
2018-08-13T17:35:29.633Z,21.10
2018-08-13T17:37:59.087Z,21.10
2018-08-13T17:40:28.000Z,21.00
2018-08-13T17:42:56.563Z,20.90
2018-08-13T17:45:25.231Z,20.90
2018-08-13T17:47:53.810Z,20.90
2018-08-13T17:50:22.849Z,20.90
2018-08-13T17:52:51.486Z,20.90
2018-08-13T17:55:20.216Z,20.90
2018-08-13T17:57:48.717Z,20.90
2018-08-13T18:00:22.064Z,20.90
2018-08-13T18:02:50.498Z,20.90
2018-08-13T18:05:22.670Z,21.00
2018-08-13T18:07:51.751Z,21.00
2018-08-13T18:10:30.756Z,21.00
2018-08-13T18:13:01.202Z,21.00
2018-08-13T18:15:30.172Z,21.00
2018-08-13T18:17:58.750Z,21.10
2018-08-13T18:20:27.332Z,21.10
2018-08-13T18:22:55.847Z,21.00
2018-08-13T18:25:24.292Z,21.10
2018-08-13T18:27:52.933Z,21.00
2018-08-13T18:30:24.246Z,21.10
2018-08-13T18:32:53.150Z,21.00
2018-08-13T18:35:21.845Z,21.10
2018-08-13T18:37:50.478Z,21.10
2018-08-13T18:40:23.941Z,21.00
2018-08-13T18:42:56.662Z,21.10
2018-08-13T18:45:25.323Z,21.10
2018-08-13T18:47:53.786Z,21.00
2018-08-13T18:50:23.000Z,21.00
2018-08-13T18:52:51.989Z,21.00
2018-08-13T18:55:22.923Z,21.00
2018-08-13T18:57:52.887Z,21.00
2018-08-13T19:00:25.631Z,21.00
2018-08-13T19:02:55.010Z,21.00
2018-08-13T19:05:23.730Z,21.00
2018-08-13T19:07:52.502Z,20.90
2018-08-13T19:10:21.657Z,21.00
2018-08-13T19:12:50.483Z,21.00
2018-08-13T19:15:22.117Z,21.00
2018-08-13T19:17:51.500Z,21.00
2018-08-13T19:20:21.003Z,20.90
2018-08-13T19:22:50.304Z,20.90
2018-08-13T19:25:22.286Z,20.90
2018-08-13T19:27:50.930Z,20.90
2018-08-13T19:30:20.797Z,20.90
2018-08-13T19:32:50.176Z,20.90
2018-08-13T19:35:18.924Z,20.90
2018-08-13T19:37:48.651Z,20.90
2018-08-13T19:40:20.114Z,21.00
2018-08-13T19:42:49.433Z,20.90
2018-08-13T19:45:20.645Z,20.90
2018-08-13T19:47:50.301Z,20.90
2018-08-13T19:50:19.678Z,20.90
2018-08-13T19:52:49.027Z,20.90
2018-08-13T19:55:20.213Z,21.00
2018-08-13T19:57:49.437Z,21.00
2018-08-13T20:00:26.170Z,21.00
2018-08-13T20:03:27.993Z,21.00
2018-08-13T20:05:58.236Z,21.00
2018-08-13T20:14:47.304Z,21.00
2018-08-13T20:17:16.163Z,20.80
2018-08-13T20:19:46.708Z,20.80
2018-08-13T20:22:15.798Z,20.80
2018-08-13T20:24:44.539Z,20.90
2018-08-13T20:27:13.366Z,20.80
2018-08-13T20:29:42.013Z,20.80
2018-08-13T20:32:10.753Z,20.80
2018-08-13T20:34:39.405Z,20.70
2018-08-13T20:37:08.269Z,20.70
2018-08-13T20:39:37.027Z,20.60
2018-08-13T20:42:06.021Z,20.60
2018-08-13T20:44:34.520Z,20.60
2018-08-13T20:47:03.131Z,20.60
2018-08-13T20:49:31.783Z,20.50
2018-08-13T20:52:01.624Z,20.60
2018-08-13T20:54:30.462Z,20.60
2018-08-13T20:56:59.046Z,20.60
2018-08-13T20:59:27.531Z,20.60
2018-08-13T21:01:56.091Z,20.60
2018-08-13T21:04:31.504Z,20.60
2018-08-13T21:07:00.028Z,20.60
2018-08-13T21:09:28.595Z,20.60
2018-08-13T21:11:57.099Z,20.60
2018-08-13T21:14:25.643Z,20.60
2018-08-13T21:16:54.347Z,20.60
2018-08-13T21:19:22.760Z,20.50
2018-08-13T21:21:51.312Z,20.50
2018-08-13T21:24:19.849Z,20.60
2018-08-13T21:26:51.164Z,20.60
2018-08-13T21:29:19.653Z,20.50
2018-08-13T21:31:49.792Z,20.60
2018-08-13T21:34:18.374Z,20.60
2018-08-13T21:36:46.909Z,20.50
2018-08-13T21:39:15.331Z,20.40
2018-08-13T21:41:43.830Z,20.40
2018-08-13T21:44:12.310Z,20.40
2018-08-13T21:46:40.729Z,20.40
2018-08-13T21:49:09.196Z,20.40
2018-08-13T21:51:37.591Z,20.50
2018-08-13T21:54:12.842Z,20.40
2018-08-13T21:56:41.204Z,20.40
2018-08-13T21:59:09.730Z,20.40
2018-08-13T22:01:43.871Z,20.50
2018-08-13T22:04:12.953Z,20.40
2018-08-13T22:06:41.372Z,20.30
2018-08-13T22:09:10.301Z,20.20
2018-08-13T22:11:38.749Z,20.20
2018-08-13T22:14:08.191Z,20.20
2018-08-13T22:16:36.660Z,20.10
2018-08-13T22:19:05.516Z,20.20
2018-08-13T22:21:34.010Z,20.20
2018-08-13T22:24:19.371Z,20.20
2018-08-13T22:26:54.353Z,20.20
2018-08-13T22:29:22.783Z,20.20
2018-08-13T22:31:51.210Z,20.20
2018-08-13T22:34:19.657Z,20.20
2018-08-13T22:36:48.082Z,20.20
2018-08-13T22:39:16.498Z,20.20
2018-08-13T22:41:44.913Z,20.20
2018-08-13T22:44:13.333Z,20.20
2018-08-13T22:46:41.701Z,20.10
2018-08-13T22:49:10.063Z,20.10
2018-08-13T22:51:38.507Z,20.10
2018-08-13T22:54:06.905Z,20.10
2018-08-13T22:56:35.294Z,20.10
2018-08-13T22:59:03.776Z,20.10
2018-08-13T23:01:32.173Z,20.10
2018-08-13T23:04:00.598Z,20.10
2018-08-13T23:06:29.046Z,20.00
2018-08-13T23:08:57.478Z,20.00
2018-08-13T23:11:25.979Z,20.00
2018-08-13T23:13:54.452Z,20.00
2018-08-13T23:16:22.950Z,20.00
2018-08-13T23:18:51.337Z,20.00
2018-08-13T23:21:19.831Z,20.00
2018-08-13T23:23:48.183Z,19.90
2018-08-13T23:26:16.587Z,19.90
2018-08-13T23:28:45.043Z,19.90
2018-08-13T23:31:13.445Z,19.90
2018-08-13T23:33:41.824Z,19.80
2018-08-13T23:36:10.274Z,19.70
2018-08-13T23:38:39.429Z,19.70
2018-08-13T23:41:08.918Z,19.80
2018-08-13T23:43:37.258Z,19.80
2018-08-13T23:46:05.766Z,19.70
2018-08-13T23:48:34.201Z,19.70
2018-08-13T23:51:02.622Z,19.70
2018-08-13T23:53:31.059Z,19.70
2018-08-13T23:55:59.448Z,19.70
2018-08-13T23:58:27.919Z,19.70
